createdAt,value
2018-06-15T00:00:20.072Z,16.40
2018-06-15T00:02:54.004Z,16.40
2018-06-15T00:05:22.356Z,16.40
2018-06-15T00:07:50.743Z,16.40
2018-06-15T00:10:19.264Z,16.40
2018-06-15T00:12:47.717Z,16.50
2018-06-15T00:15:16.131Z,16.50
2018-06-15T00:17:44.556Z,16.50
2018-06-15T00:20:12.901Z,16.50
2018-06-15T00:22:41.264Z,16.50
2018-06-15T00:25:09.696Z,16.50
2018-06-15T00:27:38.072Z,16.50
2018-06-15T00:30:07.581Z,16.50
2018-06-15T00:32:36.125Z,16.50
2018-06-15T00:35:04.518Z,16.50
2018-06-15T00:37:32.993Z,16.40
2018-06-15T00:40:01.422Z,16.40
2018-06-15T00:42:29.795Z,16.40
2018-06-15T00:44:58.160Z,16.40
2018-06-15T00:47:26.766Z,16.40
2018-06-15T00:49:55.128Z,16.40
2018-06-15T00:52:23.469Z,16.40
2018-06-15T00:54:51.884Z,16.30
2018-06-15T00:57:31.377Z,16.30
2018-06-15T00:59:59.796Z,16.20
2018-06-15T01:02:28.163Z,16.20
2018-06-15T01:04:56.560Z,16.10
2018-06-15T01:07:24.952Z,16.10
2018-06-15T01:09:53.387Z,16.10
2018-06-15T01:12:21.794Z,16.10
2018-06-15T01:14:50.338Z,16.10
2018-06-15T01:17:18.684Z,16.10
2018-06-15T01:19:47.072Z,16.10
2018-06-15T01:22:15.517Z,16.00
2018-06-15T01:24:43.908Z,16.00
2018-06-15T01:27:12.301Z,16.00
2018-06-15T01:29:40.740Z,16.00
2018-06-15T01:32:09.099Z,15.90
2018-06-15T01:34:37.460Z,15.90
2018-06-15T01:37:05.876Z,15.90
2018-06-15T01:39:34.220Z,15.90
2018-06-15T01:42:02.940Z,15.90
2018-06-15T01:46:59.452Z,15.80
2018-06-15T01:49:27.864Z,15.80
2018-06-15T01:51:56.255Z,15.80
2018-06-15T01:54:24.612Z,15.70
2018-06-15T01:56:53.013Z,15.70
2018-06-15T01:59:21.416Z,15.70
2018-06-15T02:01:49.804Z,15.60
2018-06-15T02:04:18.180Z,15.60
2018-06-15T02:06:46.628Z,15.60
2018-06-15T02:09:14.996Z,15.60
2018-06-15T02:11:43.441Z,15.50
2018-06-15T02:14:11.914Z,15.50
2018-06-15T02:16:40.316Z,15.40
2018-06-15T02:21:36.902Z,15.40
2018-06-15T02:26:33.571Z,15.30
2018-06-15T02:29:01.978Z,15.30
2018-06-15T02:31:30.393Z,15.30
2018-06-15T02:33:58.799Z,15.30
2018-06-15T02:36:27.352Z,15.30
2018-06-15T02:38:55.692Z,15.30
2018-06-15T02:41:24.072Z,15.30
2018-06-15T02:43:52.504Z,15.30
2018-06-15T02:46:20.864Z,15.30
2018-06-15T02:48:49.228Z,15.30
2018-06-15T02:51:17.632Z,15.30
2018-06-15T02:53:46.016Z,15.30
2018-06-15T02:56:14.482Z,15.30
2018-06-15T02:58:42.948Z,15.30
2018-06-15T03:01:11.392Z,15.20
2018-06-15T03:03:39.780Z,15.20
2018-06-15T03:06:08.241Z,15.20
2018-06-15T03:08:36.661Z,15.20
2018-06-15T03:11:05.045Z,15.20
2018-06-15T03:13:33.517Z,15.20
2018-06-15T03:16:01.900Z,15.20
2018-06-15T03:20:58.416Z,15.20
2018-06-15T03:23:26.804Z,15.20
2018-06-15T03:25:55.154Z,15.20
2018-06-15T03:28:23.688Z,15.20
2018-06-15T03:30:52.064Z,15.20
2018-06-15T03:33:20.589Z,15.20
2018-06-15T03:35:49.140Z,15.20
2018-06-15T03:38:17.555Z,15.20
2018-06-15T03:40:45.947Z,15.30
2018-06-15T03:43:14.444Z,15.30
2018-06-15T03:45:42.885Z,15.30
2018-06-15T03:48:11.277Z,15.50
2018-06-15T03:50:39.784Z,15.60
2018-06-15T03:53:08.181Z,15.80
2018-06-15T03:55:38.938Z,15.90
2018-06-15T03:58:07.398Z,16.10
2018-06-15T04:00:35.776Z,16.20
2018-06-15T04:03:04.293Z,16.40
2018-06-15T04:05:33.648Z,16.70
2018-06-15T04:08:02.032Z,17.00
2018-06-15T04:10:30.469Z,17.10
2018-06-15T04:12:59.097Z,17.20
2018-06-15T04:15:27.485Z,17.20
2018-06-15T04:18:06.285Z,17.50
2018-06-15T04:20:35.909Z,17.80
2018-06-15T04:23:04.266Z,18.10
2018-06-15T04:25:33.781Z,18.40
2018-06-15T04:28:02.139Z,18.80
2018-06-15T04:30:30.504Z,19.10
2018-06-15T04:32:59.044Z,19.50
2018-06-15T04:35:27.815Z,19.80
2018-06-15T04:37:56.223Z,20.20
2018-06-15T04:40:24.841Z,20.50
2018-06-15T04:42:53.232Z,20.80
2018-06-15T04:45:21.638Z,21.10
2018-06-15T04:47:50.629Z,21.60
2018-06-15T04:50:19.016Z,22.10
2018-06-15T04:52:47.377Z,22.70
2018-06-15T04:55:15.948Z,23.10
2018-06-15T04:57:44.294Z,23.50
2018-06-15T05:00:12.674Z,24.10
2018-06-15T05:02:41.389Z,24.40
2018-06-15T05:05:09.759Z,24.70
2018-06-15T05:07:38.168Z,25.10
2018-06-15T05:10:06.652Z,25.20
2018-06-15T05:12:35.482Z,25.30
2018-06-15T05:15:04.713Z,25.50
2018-06-15T05:17:34.882Z,25.90
2018-06-15T05:20:06.178Z,26.40
2018-06-15T05:22:35.605Z,26.60
2018-06-15T05:25:05.111Z,26.40
2018-06-15T05:27:34.704Z,26.20
2018-06-15T05:30:05.915Z,26.10
2018-06-15T05:32:35.435Z,25.80
2018-06-15T05:35:04.139Z,25.80
2018-06-15T05:37:32.684Z,26.10
2018-06-15T05:40:01.925Z,26.60
2018-06-15T05:42:31.185Z,26.90
2018-06-15T05:44:59.948Z,27.70
2018-06-15T05:49:52.425Z,28.20
2018-06-15T05:52:21.306Z,29.30
2018-06-15T05:54:50.198Z,29.40
2018-06-15T05:57:19.111Z,29.50
2018-06-15T05:59:48.436Z,29.00
2018-06-15T06:04:46.729Z,29.20
2018-06-15T06:07:15.320Z,29.40
2018-06-15T06:09:44.714Z,29.80
2018-06-15T06:12:14.622Z,30.40
2018-06-15T06:14:43.470Z,30.90
2018-06-15T06:17:12.418Z,30.90
2018-06-15T06:19:41.291Z,30.80
2018-06-15T06:22:09.652Z,30.80
2018-06-15T06:24:38.048Z,31.10
2018-06-15T06:27:06.770Z,31.40
2018-06-15T06:29:35.981Z,31.90
2018-06-15T06:32:05.398Z,32.10
2018-06-15T06:34:34.672Z,31.80
2018-06-15T06:37:03.299Z,31.50
2018-06-15T06:39:32.622Z,31.40
2018-06-15T06:42:04.556Z,31.80
2018-06-15T06:44:34.644Z,31.90
2018-06-15T06:47:05.082Z,32.20
2018-06-15T06:49:41.682Z,32.60
2018-06-15T06:52:10.983Z,32.80
2018-06-15T06:54:39.436Z,32.70
2018-06-15T06:57:07.883Z,32.40
2018-06-15T06:59:36.353Z,31.10
2018-06-15T07:02:04.673Z,30.70
2018-06-15T07:04:33.067Z,29.90
2018-06-15T07:07:01.628Z,30.30
2018-06-15T07:09:30.046Z,30.10
2018-06-15T07:11:58.396Z,30.60
2018-06-15T07:14:26.981Z,30.50
2018-06-15T07:16:55.352Z,30.30
2018-06-15T07:19:23.853Z,29.90
2018-06-15T07:21:52.540Z,29.70
2018-06-15T07:24:20.934Z,29.60
2018-06-15T07:26:49.410Z,29.40
2018-06-15T07:29:17.929Z,29.20
2018-06-15T07:31:46.549Z,28.60
2018-06-15T07:34:14.941Z,28.70
2018-06-15T07:36:43.580Z,28.70
2018-06-15T07:39:12.505Z,28.90
2018-06-15T07:41:41.044Z,28.90
2018-06-15T07:44:09.680Z,28.60
2018-06-15T07:46:38.341Z,27.10
2018-06-15T07:49:06.768Z,26.20
2018-06-15T07:51:35.198Z,26.30
2018-06-15T07:54:03.592Z,27.00
2018-06-15T07:56:31.965Z,27.70
2018-06-15T07:59:00.646Z,28.10
2018-06-15T08:01:29.016Z,28.50
2018-06-15T08:03:57.404Z,28.70
2018-06-15T08:06:27.377Z,28.50
2018-06-15T08:08:55.734Z,28.50
2018-06-15T08:11:24.099Z,28.80
2018-06-15T08:16:20.868Z,28.20
2018-06-15T08:18:49.228Z,28.10
2018-06-15T08:21:17.636Z,27.90
2018-06-15T08:23:46.030Z,27.60
2018-06-15T08:26:14.389Z,27.20
2018-06-15T08:28:42.933Z,26.70
2018-06-15T08:31:11.391Z,26.10
2018-06-15T08:33:39.793Z,25.80
2018-06-15T08:36:08.190Z,25.50
2018-06-15T08:38:36.550Z,25.50
2018-06-15T08:41:05.045Z,25.80
2018-06-15T08:43:33.533Z,26.30
2018-06-15T08:46:01.968Z,26.60
2018-06-15T08:48:30.345Z,26.70
2018-06-15T08:50:58.888Z,26.80
2018-06-15T08:53:27.464Z,26.40
2018-06-15T08:55:55.804Z,26.30
2018-06-15T08:58:24.236Z,25.40
2018-06-15T09:00:52.624Z,24.70
2018-06-15T09:03:21.031Z,25.20
2018-06-15T09:05:49.980Z,25.80
2018-06-15T09:08:19.358Z,26.30
2018-06-15T09:10:47.840Z,26.60
2018-06-15T09:13:16.380Z,26.70
2018-06-15T09:15:44.749Z,26.60
2018-06-15T09:18:13.168Z,26.30
2018-06-15T09:20:41.948Z,26.10
2018-06-15T09:23:10.406Z,26.00
2018-06-15T09:26:09.604Z,25.70
2018-06-15T09:28:38.133Z,24.80
2018-06-15T09:31:06.810Z,24.00
2018-06-15T09:33:35.348Z,24.40
2018-06-15T09:36:03.781Z,25.00
2018-06-15T09:38:32.248Z,25.50
2018-06-15T09:41:00.783Z,25.90
2018-06-15T09:43:29.294Z,26.30
2018-06-15T09:45:57.748Z,26.60
2018-06-15T09:48:26.420Z,25.90
2018-06-15T09:50:55.067Z,26.10
2018-06-15T09:53:23.757Z,26.40
2018-06-15T09:55:54.352Z,26.90
2018-06-15T09:58:22.908Z,27.40
2018-06-15T10:00:56.638Z,27.70
2018-06-15T10:03:26.169Z,27.80
2018-06-15T10:05:54.567Z,27.60
2018-06-15T10:08:23.214Z,27.20
2018-06-15T10:10:51.677Z,26.70
2018-06-15T10:13:20.066Z,26.30
2018-06-15T10:15:48.669Z,25.80
2018-06-15T10:18:17.067Z,25.30
2018-06-15T10:20:45.500Z,24.90
2018-06-15T10:23:14.135Z,25.10
2018-06-15T10:25:42.580Z,25.10
2018-06-15T10:28:10.958Z,25.10
2018-06-15T10:33:08.269Z,25.60
2018-06-15T10:35:36.648Z,25.80
2018-06-15T10:38:05.729Z,25.60
2018-06-15T10:40:34.328Z,25.70
2018-06-15T10:43:02.742Z,25.90
2018-06-15T10:45:31.481Z,25.70
2018-06-15T10:48:00.000Z,25.60
2018-06-15T10:50:28.360Z,25.70
2018-06-15T10:52:57.929Z,26.10
2018-06-15T10:55:26.460Z,26.50
2018-06-15T10:57:54.805Z,26.80
2018-06-15T11:00:23.457Z,26.90
2018-06-15T11:02:51.852Z,26.80
2018-06-15T11:05:20.228Z,26.90
2018-06-15T11:07:48.904Z,27.30
2018-06-15T11:10:17.333Z,27.50
2018-06-15T11:12:46.796Z,27.50
2018-06-15T11:15:15.468Z,26.50
2018-06-15T11:17:43.861Z,25.80
2018-06-15T11:20:12.422Z,25.90
2018-06-15T11:22:40.855Z,26.20
2018-06-15T11:25:09.268Z,26.40
2018-06-15T11:27:37.859Z,26.50
2018-06-15T11:30:06.553Z,25.80
2018-06-15T11:32:36.088Z,25.50
2018-06-15T11:35:04.600Z,25.80
2018-06-15T11:37:33.309Z,26.10
2018-06-15T11:40:01.677Z,26.30
2018-06-15T11:42:30.216Z,26.30
2018-06-15T11:44:58.760Z,26.10
2018-06-15T11:47:27.184Z,26.00
2018-06-15T11:49:55.812Z,26.00
2018-06-15T11:52:24.600Z,26.00
2018-06-15T11:54:53.328Z,25.70
2018-06-15T11:57:21.934Z,25.50
2018-06-15T12:02:18.587Z,25.50
2018-06-15T12:04:46.992Z,25.20
2018-06-15T12:07:15.584Z,25.30
2018-06-15T12:09:43.991Z,25.50
2018-06-15T12:12:12.348Z,25.70
2018-06-15T12:14:40.885Z,25.70
2018-06-15T12:17:09.376Z,25.50
2018-06-15T12:19:37.736Z,25.10
2018-06-15T12:22:06.381Z,24.90
2018-06-15T12:24:34.873Z,24.90
2018-06-15T12:27:03.440Z,25.10
2018-06-15T12:29:32.189Z,25.10
2018-06-15T12:32:00.717Z,25.20
2018-06-15T12:34:29.141Z,25.20
2018-06-15T12:36:57.577Z,25.20
2018-06-15T12:39:26.123Z,25.30
2018-06-15T12:41:55.144Z,25.00
2018-06-15T12:44:24.301Z,25.00
2018-06-15T12:46:52.824Z,25.50
2018-06-15T12:49:21.456Z,25.80
2018-06-15T12:51:50.092Z,25.50
2018-06-15T12:54:18.513Z,25.50
2018-06-15T12:56:46.923Z,25.70
2018-06-15T12:59:15.335Z,25.90
2018-06-15T13:01:43.886Z,26.00
2018-06-15T13:06:40.511Z,25.60
2018-06-15T13:11:37.877Z,26.00
2018-06-15T13:14:06.805Z,25.90
2018-06-15T13:16:35.464Z,25.90
2018-06-15T13:19:03.846Z,25.70
2018-06-15T13:21:32.283Z,25.10
2018-06-15T13:24:00.654Z,25.00
2018-06-15T13:26:29.042Z,25.10
2018-06-15T13:28:57.452Z,25.30
2018-06-15T13:31:25.812Z,25.20
2018-06-15T13:33:54.325Z,25.60
2018-06-15T13:36:22.820Z,25.80
2018-06-15T13:38:51.173Z,25.60
2018-06-15T13:41:19.552Z,25.20
2018-06-15T13:43:48.131Z,25.00
2018-06-15T13:46:16.504Z,25.10
2018-06-15T13:48:44.842Z,25.30
2018-06-15T13:51:13.285Z,25.40
2018-06-15T13:53:41.736Z,25.10
2018-06-15T13:56:10.148Z,25.10
2018-06-15T13:58:38.874Z,25.10
2018-06-15T14:01:08.153Z,25.40
2018-06-15T14:03:36.631Z,25.60
2018-06-15T14:06:05.272Z,25.70
2018-06-15T14:08:33.858Z,25.50
2018-06-15T14:11:02.289Z,25.30
2018-06-15T14:13:30.908Z,25.30
2018-06-15T14:15:59.422Z,25.30
2018-06-15T14:18:27.920Z,25.40
2018-06-15T14:20:56.429Z,25.50
2018-06-15T14:23:24.828Z,25.10
2018-06-15T14:25:53.216Z,24.90
2018-06-15T14:28:21.948Z,25.10
2018-06-15T14:30:50.938Z,25.20
2018-06-15T14:33:19.413Z,25.40
2018-06-15T14:35:47.912Z,25.50
2018-06-15T14:38:16.576Z,25.40
2018-06-15T14:40:44.997Z,25.20
2018-06-15T14:43:13.408Z,25.10
2018-06-15T14:45:41.859Z,25.20
2018-06-15T14:48:10.358Z,25.10
2018-06-15T14:50:38.957Z,24.70
2018-06-15T14:55:36.793Z,24.90
2018-06-15T14:58:05.431Z,25.00
2018-06-15T15:00:33.869Z,25.00
2018-06-15T15:03:02.333Z,25.10
2018-06-15T15:05:30.891Z,25.10
2018-06-15T15:07:59.409Z,25.10
2018-06-15T15:10:27.841Z,25.10
2018-06-15T15:12:56.530Z,25.10
2018-06-15T15:15:25.488Z,25.10
2018-06-15T15:17:54.246Z,24.90
2018-06-15T15:20:23.332Z,24.70
2018-06-15T15:22:51.726Z,24.60
2018-06-15T15:25:20.577Z,24.50
2018-06-15T15:27:49.206Z,24.50
2018-06-15T15:30:17.672Z,24.60
2018-06-15T15:35:14.377Z,24.80
2018-06-15T15:37:42.812Z,25.00
2018-06-15T15:40:11.397Z,25.00
2018-06-15T15:42:39.821Z,24.90
2018-06-15T15:45:08.264Z,24.90
2018-06-15T15:47:37.190Z,25.00
2018-06-15T15:50:06.373Z,25.20
2018-06-15T15:52:34.887Z,25.30
2018-06-15T15:55:03.301Z,25.30
2018-06-15T15:57:32.198Z,25.20
2018-06-15T16:00:00.701Z,25.20
2018-06-15T16:02:29.121Z,24.90
2018-06-15T16:04:57.735Z,24.90
2018-06-15T16:07:26.203Z,24.90
2018-06-15T16:09:54.728Z,24.90
2018-06-15T16:12:24.349Z,24.90
2018-06-15T16:14:52.837Z,24.90
2018-06-15T16:17:27.912Z,24.90
2018-06-15T16:19:56.386Z,24.80
2018-06-15T16:22:24.936Z,24.70
2018-06-15T16:24:53.928Z,24.50
2018-06-15T16:27:22.408Z,24.50
2018-06-15T16:29:51.070Z,24.50
2018-06-15T16:32:19.649Z,24.40
2018-06-15T16:34:48.089Z,24.30
2018-06-15T16:37:16.890Z,24.20
2018-06-15T16:39:45.477Z,24.20
2018-06-15T16:42:13.929Z,24.20
2018-06-15T16:44:42.354Z,24.30
2018-06-15T16:47:11.150Z,24.40
2018-06-15T16:49:39.568Z,24.50
2018-06-15T16:52:08.101Z,24.60
2018-06-15T16:54:37.657Z,24.60
2018-06-15T16:57:06.094Z,24.60
2018-06-15T16:59:34.538Z,24.60
2018-06-15T17:02:03.220Z,24.50
2018-06-15T17:04:31.565Z,24.40
2018-06-15T17:06:59.958Z,24.40
2018-06-15T17:09:28.524Z,24.40
2018-06-15T17:11:56.860Z,24.50
2018-06-15T17:14:25.235Z,24.30
2018-06-15T17:16:53.781Z,24.10
2018-06-15T17:19:22.214Z,24.00
2018-06-15T17:21:50.576Z,24.00
2018-06-15T17:24:19.169Z,23.90
2018-06-15T17:26:47.611Z,23.80
2018-06-15T17:31:44.387Z,23.80
2018-06-15T17:34:12.935Z,23.70
2018-06-15T17:36:44.796Z,23.70
2018-06-15T17:39:13.687Z,23.70
2018-06-15T17:41:42.966Z,23.60
2018-06-15T17:44:11.499Z,23.50
2018-06-15T17:46:39.915Z,23.50
2018-06-15T17:49:09.267Z,23.60
2018-06-15T17:51:37.745Z,23.60
2018-06-15T17:54:06.401Z,23.60
2018-06-15T17:56:34.808Z,23.50
2018-06-15T17:59:03.271Z,23.50
2018-06-15T18:01:31.764Z,23.50
2018-06-15T18:04:00.259Z,23.40
2018-06-15T18:06:28.973Z,23.20
2018-06-15T18:08:57.417Z,23.10
2018-06-15T18:11:25.885Z,22.90
2018-06-15T18:13:54.932Z,22.90
2018-06-15T18:16:23.337Z,22.80
2018-06-15T18:18:51.784Z,22.80
2018-06-15T18:21:20.545Z,22.70
2018-06-15T18:23:49.224Z,22.70
2018-06-15T18:26:17.826Z,22.50
2018-06-15T18:28:46.377Z,22.40
2018-06-15T18:31:14.829Z,22.30
2018-06-15T18:33:43.308Z,22.20
2018-06-15T18:36:12.018Z,22.10
2018-06-15T18:38:40.494Z,22.20
2018-06-15T18:41:09.088Z,22.20
2018-06-15T18:43:38.295Z,22.30
2018-06-15T18:50:17.184Z,22.30
2018-06-15T18:52:45.705Z,22.40
2018-06-15T18:55:14.448Z,22.30
2018-06-15T18:57:42.911Z,22.30
2018-06-15T19:00:11.567Z,22.20
2018-06-15T19:02:40.057Z,22.10
2018-06-15T19:05:10.230Z,22.10
2018-06-15T19:07:38.924Z,22.10
2018-06-15T19:10:08.383Z,21.90
2018-06-15T19:12:37.144Z,21.90
2018-06-15T19:15:05.619Z,21.80
2018-06-15T19:17:34.005Z,21.60
2018-06-15T19:20:02.921Z,21.50
2018-06-15T19:22:31.605Z,21.50
2018-06-15T19:25:00.000Z,21.40
2018-06-15T19:27:28.576Z,21.30
2018-06-15T19:29:58.189Z,21.20
2018-06-15T19:32:26.720Z,21.10
2018-06-15T19:34:55.721Z,21.10
2018-06-15T19:37:24.656Z,21.10
2018-06-15T19:39:53.356Z,21.10
2018-06-15T19:42:22.294Z,21.00
2018-06-15T19:44:51.136Z,20.90
2018-06-15T19:47:19.542Z,20.80
2018-06-15T19:49:48.209Z,20.70
2018-06-15T19:52:16.685Z,20.50
2018-06-15T19:54:45.141Z,20.30
2018-06-15T19:57:13.702Z,20.20
2018-06-15T19:59:42.286Z,20.10
2018-06-15T20:02:17.300Z,20.00
2018-06-15T20:04:45.850Z,19.90
2018-06-15T20:07:14.372Z,19.80
2018-06-15T20:09:42.928Z,19.80
2018-06-15T20:12:11.541Z,19.70
2018-06-15T20:14:40.098Z,19.70
2018-06-15T20:17:08.605Z,19.60
2018-06-15T20:19:39.025Z,19.60
2018-06-15T20:22:08.625Z,19.50
2018-06-15T20:24:39.368Z,19.50
2018-06-15T20:27:10.499Z,19.40
2018-06-15T20:29:43.942Z,19.40
2018-06-15T20:32:16.982Z,19.40
2018-06-15T20:34:45.551Z,19.30
2018-06-15T20:37:14.081Z,19.20
2018-06-15T20:39:42.644Z,19.20
2018-06-15T20:42:11.080Z,19.10
2018-06-15T20:44:39.509Z,19.10
2018-06-15T20:47:08.703Z,19.10
2018-06-15T20:49:37.384Z,19.00
2018-06-15T20:52:06.130Z,19.00
2018-06-15T20:54:35.759Z,19.00
2018-06-15T20:57:04.452Z,18.90
2018-06-15T20:59:36.321Z,18.90
2018-06-15T21:02:05.297Z,18.80
2018-06-15T21:04:34.176Z,18.70
2018-06-15T21:07:02.821Z,18.70
2018-06-15T21:09:31.588Z,18.60
2018-06-15T21:12:02.657Z,18.60
2018-06-15T21:14:31.259Z,18.50
2018-06-15T21:17:00.457Z,18.50
2018-06-15T21:19:29.064Z,18.50
2018-06-15T21:21:57.527Z,18.40
2018-06-15T21:24:27.085Z,18.40
2018-06-15T21:26:55.612Z,18.40
2018-06-15T21:29:24.000Z,18.30
2018-06-15T21:31:52.456Z,18.30
2018-06-15T21:34:21.174Z,18.30
2018-06-15T21:36:49.990Z,18.30
2018-06-15T21:39:18.672Z,18.30
2018-06-15T21:41:47.113Z,18.30
2018-06-15T21:44:15.634Z,18.30
2018-06-15T21:46:44.387Z,18.30
2018-06-15T21:49:12.996Z,18.30
2018-06-15T21:51:41.419Z,18.30
2018-06-15T21:54:09.860Z,18.30
2018-06-15T21:56:40.291Z,18.30
2018-06-15T21:59:08.710Z,18.30
2018-06-15T22:01:37.157Z,18.30
2018-06-15T22:04:05.760Z,18.30
2018-06-15T22:06:34.309Z,18.30
2018-06-15T22:09:02.792Z,18.30
2018-06-15T22:11:31.548Z,18.30
2018-06-15T22:13:59.949Z,18.30
2018-06-15T22:16:32.740Z,18.30
2018-06-15T22:19:01.552Z,18.20
2018-06-15T22:21:29.948Z,18.20
2018-06-15T22:23:58.608Z,18.20
2018-06-15T22:26:26.969Z,18.10
2018-06-15T22:28:55.353Z,18.10
2018-06-15T22:31:23.909Z,18.10
2018-06-15T22:33:52.290Z,18.10
2018-06-15T22:36:20.700Z,18.10
2018-06-15T22:38:49.116Z,18.10
2018-06-15T22:41:17.476Z,18.10
2018-06-15T22:43:45.954Z,18.10
2018-06-15T22:46:14.421Z,18.00
2018-06-15T22:48:42.813Z,18.00
2018-06-15T22:51:11.194Z,18.00
2018-06-15T22:53:39.644Z,18.00
2018-06-15T22:56:08.066Z,17.90
2018-06-15T22:58:36.957Z,17.90
2018-06-15T23:01:05.565Z,18.00
2018-06-15T23:03:33.962Z,18.00
2018-06-15T23:06:02.332Z,17.90
2018-06-15T23:08:30.915Z,17.90
2018-06-15T23:10:59.274Z,17.90
2018-06-15T23:13:27.633Z,17.90
2018-06-15T23:15:56.257Z,17.90
2018-06-15T23:18:24.668Z,17.90
2018-06-15T23:20:56.133Z,17.90
2018-06-15T23:23:24.598Z,17.90
2018-06-15T23:25:52.981Z,17.90
2018-06-15T23:28:21.484Z,17.90
2018-06-15T23:30:50.099Z,17.90
2018-06-15T23:33:18.465Z,17.90
2018-06-15T23:35:46.869Z,17.80
2018-06-15T23:38:16.324Z,17.80
2018-06-15T23:43:12.764Z,17.80
2018-06-15T23:45:41.347Z,17.70
2018-06-15T23:48:09.761Z,17.70
2018-06-15T23:50:38.136Z,17.70
2018-06-15T23:53:06.553Z,17.60
2018-06-15T23:55:34.963Z,17.60
